sensor_id;sensor_type;location;lat;lon;timestamp;P1;durP1;ratioP1;P2;durP2;ratioP2
69240;SDS011;56352;55.750;13.198;2023-06-14T00:01:14;2.22;;;1.83;;
69240;SDS011;56352;55.750;13.198;2023-06-14T00:03:40;5.35;;;2.25;;
69240;SDS011;56352;55.750;13.198;2023-06-14T00:06:07;4.82;;;2.08;;
69240;SDS011;56352;55.750;13.198;2023-06-14T00:08:34;3.25;;;1.83;;
69240;SDS011;56352;55.750;13.198;2023-06-14T00:11:01;4.00;;;1.95;;
69240;SDS011;56352;55.750;13.198;2023-06-14T00:13:27;3.50;;;2.05;;
69240;SDS011;56352;55.750;13.198;2023-06-14T00:15:54;4.63;;;2.20;;
69240;SDS011;56352;55.750;13.198;2023-06-14T00:18:21;4.88;;;2.30;;
69240;SDS011;56352;55.750;13.198;2023-06-14T00:20:50;2.20;;;1.90;;
69240;SDS011;56352;55.750;13.198;2023-06-14T00:23:18;3.05;;;1.92;;
69240;SDS011;56352;55.750;13.198;2023-06-14T00:25:44;3.25;;;1.95;;
69240;SDS011;56352;55.750;13.198;2023-06-14T00:28:11;3.33;;;2.35;;
69240;SDS011;56352;55.750;13.198;2023-06-14T00:30:38;7.45;;;2.42;;
69240;SDS011;56352;55.750;13.198;2023-06-14T00:33:04;3.13;;;2.10;;
69240;SDS011;56352;55.750;13.198;2023-06-14T00:35:31;5.07;;;2.60;;
69240;SDS011;56352;55.750;13.198;2023-06-14T00:37:58;3.45;;;2.05;;
69240;SDS011;56352;55.750;13.198;2023-06-14T00:40:25;3.75;;;2.53;;
69240;SDS011;56352;55.750;13.198;2023-06-14T00:42:52;3.42;;;2.08;;
69240;SDS011;56352;55.750;13.198;2023-06-14T00:45:19;3.63;;;2.15;;
69240;SDS011;56352;55.750;13.198;2023-06-14T00:47:45;6.95;;;2.67;;
69240;SDS011;56352;55.750;13.198;2023-06-14T00:50:12;3.67;;;2.67;;
69240;SDS011;56352;55.750;13.198;2023-06-14T00:52:39;3.10;;;2.17;;
69240;SDS011;56352;55.750;13.198;2023-06-14T00:55:06;5.53;;;3.10;;
69240;SDS011;56352;55.750;13.198;2023-06-14T00:57:33;3.95;;;2.55;;
69240;SDS011;56352;55.750;13.198;2023-06-14T00:59:59;4.00;;;2.53;;
69240;SDS011;56352;55.750;13.198;2023-06-14T01:02:26;3.80;;;2.40;;
69240;SDS011;56352;55.750;13.198;2023-06-14T01:04:52;5.35;;;2.42;;
69240;SDS011;56352;55.750;13.198;2023-06-14T01:07:33;5.60;;;3.00;;
69240;SDS011;56352;55.750;13.198;2023-06-14T01:12:43;3.33;;;2.40;;
69240;SDS011;56352;55.750;13.198;2023-06-14T01:15:12;3.92;;;2.35;;
69240;SDS011;56352;55.750;13.198;2023-06-14T01:17:39;4.55;;;2.22;;
69240;SDS011;56352;55.750;13.198;2023-06-14T01:20:10;4.03;;;2.33;;
69240;SDS011;56352;55.750;13.198;2023-06-14T01:22:50;5.05;;;2.25;;
69240;SDS011;56352;55.750;13.198;2023-06-14T01:25:17;4.45;;;2.15;;
69240;SDS011;56352;55.750;13.198;2023-06-14T01:27:48;3.72;;;2.63;;
69240;SDS011;56352;55.750;13.198;2023-06-14T01:30:15;4.53;;;2.63;;
69240;SDS011;56352;55.750;13.198;2023-06-14T01:32:43;3.50;;;2.35;;
69240;SDS011;56352;55.750;13.198;2023-06-14T01:35:10;4.20;;;2.15;;
69240;SDS011;56352;55.750;13.198;2023-06-14T01:37:37;3.97;;;2.15;;
69240;SDS011;56352;55.750;13.198;2023-06-14T01:40:04;7.13;;;2.33;;
69240;SDS011;56352;55.750;13.198;2023-06-14T01:42:35;5.27;;;2.20;;
69240;SDS011;56352;55.750;13.198;2023-06-14T01:45:02;2.88;;;1.88;;
69240;SDS011;56352;55.750;13.198;2023-06-14T01:47:29;4.80;;;2.25;;
69240;SDS011;56352;55.750;13.198;2023-06-14T01:49:56;4.07;;;2.58;;
69240;SDS011;56352;55.750;13.198;2023-06-14T01:52:23;3.80;;;2.10;;
69240;SDS011;56352;55.750;13.198;2023-06-14T01:54:50;4.90;;;2.05;;
69240;SDS011;56352;55.750;13.198;2023-06-14T01:57:17;2.80;;;2.00;;
69240;SDS011;56352;55.750;13.198;2023-06-14T01:59:43;3.45;;;2.42;;
69240;SDS011;56352;55.750;13.198;2023-06-14T02:02:14;4.70;;;2.40;;
69240;SDS011;56352;55.750;13.198;2023-06-14T02:04:41;3.90;;;2.25;;
69240;SDS011;56352;55.750;13.198;2023-06-14T02:07:08;5.85;;;2.45;;
69240;SDS011;56352;55.750;13.198;2023-06-14T02:09:35;4.28;;;2.60;;
69240;SDS011;56352;55.750;13.198;2023-06-14T02:12:01;3.08;;;2.42;;
69240;SDS011;56352;55.750;13.198;2023-06-14T02:14:28;4.35;;;2.90;;
69240;SDS011;56352;55.750;13.198;2023-06-14T02:16:54;3.63;;;3.03;;
69240;SDS011;56352;55.750;13.198;2023-06-14T02:19:21;4.57;;;2.70;;
69240;SDS011;56352;55.750;13.198;2023-06-14T02:21:48;4.25;;;2.88;;
69240;SDS011;56352;55.750;13.198;2023-06-14T02:24:14;4.28;;;2.70;;
69240;SDS011;56352;55.750;13.198;2023-06-14T02:26:41;4.80;;;2.75;;
69240;SDS011;56352;55.750;13.198;2023-06-14T02:29:08;3.17;;;2.38;;
69240;SDS011;56352;55.750;13.198;2023-06-14T02:31:37;6.28;;;3.20;;
69240;SDS011;56352;55.750;13.198;2023-06-14T02:34:04;6.03;;;3.38;;
69240;SDS011;56352;55.750;13.198;2023-06-14T02:36:30;5.15;;;2.70;;
69240;SDS011;56352;55.750;13.198;2023-06-14T02:38:57;9.00;;;3.00;;
69240;SDS011;56352;55.750;13.198;2023-06-14T02:41:24;5.43;;;2.35;;
69240;SDS011;56352;55.750;13.198;2023-06-14T02:43:55;4.72;;;2.72;;
69240;SDS011;56352;55.750;13.198;2023-06-14T02:46:22;3.03;;;2.10;;
69240;SDS011;56352;55.750;13.198;2023-06-14T02:48:49;3.35;;;2.42;;
69240;SDS011;56352;55.750;13.198;2023-06-14T02:51:15;3.75;;;2.28;;
69240;SDS011;56352;55.750;13.198;2023-06-14T02:53:42;4.07;;;2.40;;
69240;SDS011;56352;55.750;13.198;2023-06-14T02:56:10;3.80;;;2.40;;
69240;SDS011;56352;55.750;13.198;2023-06-14T02:58:37;5.20;;;2.50;;
69240;SDS011;56352;55.750;13.198;2023-06-14T03:01:05;3.30;;;2.50;;
69240;SDS011;56352;55.750;13.198;2023-06-14T03:03:34;5.53;;;2.75;;
69240;SDS011;56352;55.750;13.198;2023-06-14T03:06:00;5.78;;;3.03;;
69240;SDS011;56352;55.750;13.198;2023-06-14T03:10:57;4.40;;;2.63;;
69240;SDS011;56352;55.750;13.198;2023-06-14T03:13:24;3.70;;;2.85;;
69240;SDS011;56352;55.750;13.198;2023-06-14T03:15:51;5.25;;;2.42;;
69240;SDS011;56352;55.750;13.198;2023-06-14T03:18:18;3.90;;;2.60;;
69240;SDS011;56352;55.750;13.198;2023-06-14T03:20:45;3.63;;;2.33;;
69240;SDS011;56352;55.750;13.198;2023-06-14T03:23:12;5.32;;;3.25;;
69240;SDS011;56352;55.750;13.198;2023-06-14T03:25:38;4.88;;;2.20;;
69240;SDS011;56352;55.750;13.198;2023-06-14T03:28:08;4.35;;;2.47;;
69240;SDS011;56352;55.750;13.198;2023-06-14T03:30:35;5.07;;;2.28;;
69240;SDS011;56352;55.750;13.198;2023-06-14T03:33:01;2.85;;;2.00;;
69240;SDS011;56352;55.750;13.198;2023-06-14T03:35:28;2.60;;;2.20;;
69240;SDS011;56352;55.750;13.198;2023-06-14T03:37:55;3.80;;;1.92;;
69240;SDS011;56352;55.750;13.198;2023-06-14T03:40:22;3.67;;;2.15;;
69240;SDS011;56352;55.750;13.198;2023-06-14T03:42:52;5.68;;;2.15;;
69240;SDS011;56352;55.750;13.198;2023-06-14T03:45:19;7.18;;;2.25;;
69240;SDS011;56352;55.750;13.198;2023-06-14T03:47:45;2.95;;;2.10;;
69240;SDS011;56352;55.750;13.198;2023-06-14T03:50:12;4.82;;;2.20;;
69240;SDS011;56352;55.750;13.198;2023-06-14T03:52:39;3.63;;;1.90;;
69240;SDS011;56352;55.750;13.198;2023-06-14T03:55:09;6.38;;;2.30;;
69240;SDS011;56352;55.750;13.198;2023-06-14T03:57:39;2.97;;;1.70;;
69240;SDS011;56352;55.750;13.198;2023-06-14T04:00:06;6.75;;;1.92;;
69240;SDS011;56352;55.750;13.198;2023-06-14T04:02:34;3.80;;;1.92;;
69240;SDS011;56352;55.750;13.198;2023-06-14T04:05:01;2.95;;;1.80;;
69240;SDS011;56352;55.750;13.198;2023-06-14T04:07:30;2.20;;;1.52;;
69240;SDS011;56352;55.750;13.198;2023-06-14T04:09:56;3.72;;;1.85;;
69240;SDS011;56352;55.750;13.198;2023-06-14T04:12:23;3.55;;;2.00;;
69240;SDS011;56352;55.750;13.198;2023-06-14T04:14:50;2.53;;;1.95;;
69240;SDS011;56352;55.750;13.198;2023-06-14T04:17:17;3.05;;;2.00;;
69240;SDS011;56352;55.750;13.198;2023-06-14T04:19:43;2.33;;;1.88;;
69240;SDS011;56352;55.750;13.198;2023-06-14T04:22:10;3.67;;;2.30;;
69240;SDS011;56352;55.750;13.198;2023-06-14T04:24:37;4.45;;;2.00;;
69240;SDS011;56352;55.750;13.198;2023-06-14T04:27:04;3.20;;;1.95;;
69240;SDS011;56352;55.750;13.198;2023-06-14T04:29:31;3.67;;;1.70;;
69240;SDS011;56352;55.750;13.198;2023-06-14T04:31:58;2.20;;;1.70;;
69240;SDS011;56352;55.750;13.198;2023-06-14T04:34:25;4.53;;;2.20;;
69240;SDS011;56352;55.750;13.198;2023-06-14T04:36:56;2.92;;;1.95;;
69240;SDS011;56352;55.750;13.198;2023-06-14T04:39:24;3.90;;;1.83;;
69240;SDS011;56352;55.750;13.198;2023-06-14T04:41:51;2.65;;;1.60;;
69240;SDS011;56352;55.750;13.198;2023-06-14T04:44:18;5.15;;;2.67;;
69240;SDS011;56352;55.750;13.198;2023-06-14T04:46:46;4.50;;;1.98;;
69240;SDS011;56352;55.750;13.198;2023-06-14T04:49:13;2.65;;;1.80;;
69240;SDS011;56352;55.750;13.198;2023-06-14T04:51:42;3.87;;;2.10;;
69240;SDS011;56352;55.750;13.198;2023-06-14T04:54:09;6.88;;;2.13;;
69240;SDS011;56352;55.750;13.198;2023-06-14T04:56:42;3.28;;;1.60;;
69240;SDS011;56352;55.750;13.198;2023-06-14T04:59:08;2.97;;;1.92;;
69240;SDS011;56352;55.750;13.198;2023-06-14T05:01:35;4.03;;;1.85;;
69240;SDS011;56352;55.750;13.198;2023-06-14T05:04:03;3.90;;;2.10;;
69240;SDS011;56352;55.750;13.198;2023-06-14T05:06:31;3.95;;;2.00;;
69240;SDS011;56352;55.750;13.198;2023-06-14T05:08:58;5.65;;;2.08;;
69240;SDS011;56352;55.750;13.198;2023-06-14T05:11:24;4.93;;;2.20;;
69240;SDS011;56352;55.750;13.198;2023-06-14T05:13:53;4.28;;;2.13;;
69240;SDS011;56352;55.750;13.198;2023-06-14T05:16:20;2.80;;;2.00;;
69240;SDS011;56352;55.750;13.198;2023-06-14T05:18:49;4.30;;;2.17;;
69240;SDS011;56352;55.750;13.198;2023-06-14T05:21:17;6.63;;;2.40;;
69240;SDS011;56352;55.750;13.198;2023-06-14T05:23:44;5.45;;;2.13;;
69240;SDS011;56352;55.750;13.198;2023-06-14T05:26:11;6.13;;;1.92;;
69240;SDS011;56352;55.750;13.198;2023-06-14T05:28:38;6.10;;;2.38;;
69240;SDS011;56352;55.750;13.198;2023-06-14T05:31:04;7.20;;;2.60;;
69240;SDS011;56352;55.750;13.198;2023-06-14T05:33:31;10.75;;;2.63;;
69240;SDS011;56352;55.750;13.198;2023-06-14T05:35:58;14.25;;;2.45;;
69240;SDS011;56352;55.750;13.198;2023-06-14T05:38:25;7.55;;;2.50;;
69240;SDS011;56352;55.750;13.198;2023-06-14T05:40:51;7.50;;;2.10;;
69240;SDS011;56352;55.750;13.198;2023-06-14T05:43:18;10.52;;;2.90;;
69240;SDS011;56352;55.750;13.198;2023-06-14T05:45:45;6.20;;;2.30;;
69240;SDS011;56352;55.750;13.198;2023-06-14T05:48:11;7.15;;;2.38;;
69240;SDS011;56352;55.750;13.198;2023-06-14T05:50:38;8.65;;;2.10;;
69240;SDS011;56352;55.750;13.198;2023-06-14T05:53:04;7.40;;;2.15;;
69240;SDS011;56352;55.750;13.198;2023-06-14T05:55:31;6.72;;;2.25;;
69240;SDS011;56352;55.750;13.198;2023-06-14T05:57:57;6.20;;;1.75;;
69240;SDS011;56352;55.750;13.198;2023-06-14T06:00:24;4.97;;;1.60;;
69240;SDS011;56352;55.750;13.198;2023-06-14T06:02:51;2.97;;;1.50;;
69240;SDS011;56352;55.750;13.198;2023-06-14T06:05:18;3.08;;;2.03;;
69240;SDS011;56352;55.750;13.198;2023-06-14T06:07:44;3.70;;;1.83;;
69240;SDS011;56352;55.750;13.198;2023-06-14T06:10:11;4.18;;;1.70;;
69240;SDS011;56352;55.750;13.198;2023-06-14T06:12:38;3.97;;;1.85;;
69240;SDS011;56352;55.750;13.198;2023-06-14T06:15:05;3.72;;;1.85;;
69240;SDS011;56352;55.750;13.198;2023-06-14T06:17:32;2.85;;;1.70;;
69240;SDS011;56352;55.750;13.198;2023-06-14T06:20:19;3.03;;;1.98;;
69240;SDS011;56352;55.750;13.198;2023-06-14T06:22:45;4.70;;;2.28;;
69240;SDS011;56352;55.750;13.198;2023-06-14T06:25:12;7.55;;;2.03;;
69240;SDS011;56352;55.750;13.198;2023-06-14T06:27:40;8.20;;;2.25;;
69240;SDS011;56352;55.750;13.198;2023-06-14T06:30:07;5.72;;;2.20;;
69240;SDS011;56352;55.750;13.198;2023-06-14T06:32:33;5.50;;;2.10;;
69240;SDS011;56352;55.750;13.198;2023-06-14T06:35:00;7.80;;;2.53;;
69240;SDS011;56352;55.750;13.198;2023-06-14T06:37:26;6.30;;;2.10;;
69240;SDS011;56352;55.750;13.198;2023-06-14T06:39:53;10.30;;;2.55;;
69240;SDS011;56352;55.750;13.198;2023-06-14T06:42:20;5.90;;;2.13;;
69240;SDS011;56352;55.750;13.198;2023-06-14T06:44:47;8.18;;;2.17;;
69240;SDS011;56352;55.750;13.198;2023-06-14T06:47:13;8.93;;;2.35;;
69240;SDS011;56352;55.750;13.198;2023-06-14T06:49:40;6.35;;;2.13;;
69240;SDS011;56352;55.750;13.198;2023-06-14T06:52:07;5.47;;;2.55;;
69240;SDS011;56352;55.750;13.198;2023-06-14T06:54:33;11.02;;;2.50;;
69240;SDS011;56352;55.750;13.198;2023-06-14T06:57:00;10.25;;;2.60;;
69240;SDS011;56352;55.750;13.198;2023-06-14T06:59:27;9.30;;;2.35;;
69240;SDS011;56352;55.750;13.198;2023-06-14T07:01:54;12.73;;;2.50;;
69240;SDS011;56352;55.750;13.198;2023-06-14T07:04:21;6.95;;;2.55;;
69240;SDS011;56352;55.750;13.198;2023-06-14T07:06:48;9.70;;;3.13;;
69240;SDS011;56352;55.750;13.198;2023-06-14T07:09:14;12.15;;;2.35;;
69240;SDS011;56352;55.750;13.198;2023-06-14T07:11:43;7.22;;;2.25;;
69240;SDS011;56352;55.750;13.198;2023-06-14T07:14:10;7.07;;;2.00;;
69240;SDS011;56352;55.750;13.198;2023-06-14T07:16:36;10.32;;;2.03;;
69240;SDS011;56352;55.750;13.198;2023-06-14T07:19:03;9.02;;;2.42;;
69240;SDS011;56352;55.750;13.198;2023-06-14T07:21:30;10.73;;;2.78;;
69240;SDS011;56352;55.750;13.198;2023-06-14T07:23:57;6.35;;;1.90;;
69240;SDS011;56352;55.750;13.198;2023-06-14T07:26:23;7.63;;;1.95;;
69240;SDS011;56352;55.750;13.198;2023-06-14T07:28:51;7.50;;;2.03;;
69240;SDS011;56352;55.750;13.198;2023-06-14T07:31:17;3.65;;;1.88;;
69240;SDS011;56352;55.750;13.198;2023-06-14T07:33:45;5.35;;;1.70;;
69240;SDS011;56352;55.750;13.198;2023-06-14T07:36:12;5.15;;;1.73;;
69240;SDS011;56352;55.750;13.198;2023-06-14T07:38:39;9.98;;;2.38;;
69240;SDS011;56352;55.750;13.198;2023-06-14T07:41:07;4.15;;;1.60;;
69240;SDS011;56352;55.750;13.198;2023-06-14T07:43:33;5.13;;;1.90;;
69240;SDS011;56352;55.750;13.198;2023-06-14T07:46:00;3.90;;;1.50;;
69240;SDS011;56352;55.750;13.198;2023-06-14T07:48:32;3.63;;;1.90;;
69240;SDS011;56352;55.750;13.198;2023-06-14T07:50:59;2.30;;;1.52;;
69240;SDS011;56352;55.750;13.198;2023-06-14T07:53:27;5.95;;;2.00;;
69240;SDS011;56352;55.750;13.198;2023-06-14T07:55:54;3.20;;;2.20;;
69240;SDS011;56352;55.750;13.198;2023-06-14T07:58:21;2.72;;;1.70;;
69240;SDS011;56352;55.750;13.198;2023-06-14T08:00:47;3.38;;;1.80;;
69240;SDS011;56352;55.750;13.198;2023-06-14T08:03:14;2.40;;;1.75;;
69240;SDS011;56352;55.750;13.198;2023-06-14T08:05:41;4.40;;;1.90;;
69240;SDS011;56352;55.750;13.198;2023-06-14T08:08:07;8.25;;;2.10;;
69240;SDS011;56352;55.750;13.198;2023-06-14T08:10:34;4.68;;;2.00;;
69240;SDS011;56352;55.750;13.198;2023-06-14T08:13:01;7.88;;;2.10;;
69240;SDS011;56352;55.750;13.198;2023-06-14T08:15:27;3.65;;;2.20;;
69240;SDS011;56352;55.750;13.198;2023-06-14T08:17:54;2.70;;;1.83;;
69240;SDS011;56352;55.750;13.198;2023-06-14T08:20:20;6.82;;;2.28;;
69240;SDS011;56352;55.750;13.198;2023-06-14T08:22:47;4.72;;;2.20;;
69240;SDS011;56352;55.750;13.198;2023-06-14T08:25:14;5.57;;;1.95;;
69240;SDS011;56352;55.750;13.198;2023-06-14T08:27:41;6.00;;;2.42;;
69240;SDS011;56352;55.750;13.198;2023-06-14T08:30:08;4.40;;;2.35;;
69240;SDS011;56352;55.750;13.198;2023-06-14T08:32:35;8.07;;;2.42;;
69240;SDS011;56352;55.750;13.198;2023-06-14T08:35:02;4.45;;;2.30;;
69240;SDS011;56352;55.750;13.198;2023-06-14T08:37:31;7.82;;;2.08;;
69240;SDS011;56352;55.750;13.198;2023-06-14T08:39:59;4.88;;;2.65;;
69240;SDS011;56352;55.750;13.198;2023-06-14T08:42:26;3.88;;;1.77;;
69240;SDS011;56352;55.750;13.198;2023-06-14T08:44:57;6.55;;;2.35;;
69240;SDS011;56352;55.750;13.198;2023-06-14T08:47:24;5.43;;;2.40;;
69240;SDS011;56352;55.750;13.198;2023-06-14T08:49:53;3.25;;;1.85;;
69240;SDS011;56352;55.750;13.198;2023-06-14T08:52:23;3.45;;;1.60;;
69240;SDS011;56352;55.750;13.198;2023-06-14T08:54:51;3.83;;;2.00;;
69240;SDS011;56352;55.750;13.198;2023-06-14T08:57:18;3.47;;;1.80;;
69240;SDS011;56352;55.750;13.198;2023-06-14T08:59:47;2.13;;;1.88;;
69240;SDS011;56352;55.750;13.198;2023-06-14T09:02:18;5.60;;;2.20;;
69240;SDS011;56352;55.750;13.198;2023-06-14T09:04:46;4.10;;;2.00;;
69240;SDS011;56352;55.750;13.198;2023-06-14T09:07:12;6.05;;;2.10;;
69240;SDS011;56352;55.750;13.198;2023-06-14T09:09:40;4.10;;;2.03;;
69240;SDS011;56352;55.750;13.198;2023-06-14T09:12:27;5.75;;;2.10;;
69240;SDS011;56352;55.750;13.198;2023-06-14T09:14:54;2.88;;;1.88;;
69240;SDS011;56352;55.750;13.198;2023-06-14T09:17:21;3.17;;;2.03;;
69240;SDS011;56352;55.750;13.198;2023-06-14T09:19:49;4.28;;;2.15;;
69240;SDS011;56352;55.750;13.198;2023-06-14T09:22:16;3.05;;;1.95;;
69240;SDS011;56352;55.750;13.198;2023-06-14T09:24:43;3.75;;;1.90;;
69240;SDS011;56352;55.750;13.198;2023-06-14T09:27:14;2.33;;;1.88;;
69240;SDS011;56352;55.750;13.198;2023-06-14T09:29:41;3.95;;;1.90;;
69240;SDS011;56352;55.750;13.198;2023-06-14T09:32:07;2.00;;;1.70;;
69240;SDS011;56352;55.750;13.198;2023-06-14T09:34:35;5.57;;;2.22;;
69240;SDS011;56352;55.750;13.198;2023-06-14T09:37:02;4.18;;;2.15;;
69240;SDS011;56352;55.750;13.198;2023-06-14T09:39:29;5.53;;;2.00;;
69240;SDS011;56352;55.750;13.198;2023-06-14T09:41:55;4.13;;;2.10;;
69240;SDS011;56352;55.750;13.198;2023-06-14T09:44:22;5.20;;;2.10;;
69240;SDS011;56352;55.750;13.198;2023-06-14T09:46:51;5.82;;;2.00;;
69240;SDS011;56352;55.750;13.198;2023-06-14T09:49:19;3.78;;;2.10;;
69240;SDS011;56352;55.750;13.198;2023-06-14T09:51:45;4.53;;;2.22;;
69240;SDS011;56352;55.750;13.198;2023-06-14T09:54:16;5.15;;;2.13;;
69240;SDS011;56352;55.750;13.198;2023-06-14T09:56:47;3.05;;;2.45;;
69240;SDS011;56352;55.750;13.198;2023-06-14T09:59:13;11.70;;;2.47;;
69240;SDS011;56352;55.750;13.198;2023-06-14T10:01:42;3.53;;;2.42;;
69240;SDS011;56352;55.750;13.198;2023-06-14T10:04:09;3.13;;;2.07;;
69240;SDS011;56352;55.750;13.198;2023-06-14T10:06:39;4.07;;;2.50;;
69240;SDS011;56352;55.750;13.198;2023-06-14T10:09:07;4.47;;;2.72;;
69240;SDS011;56352;55.750;13.198;2023-06-14T10:11:35;5.07;;;2.42;;
69240;SDS011;56352;55.750;13.198;2023-06-14T10:14:06;6.63;;;2.42;;
69240;SDS011;56352;55.750;13.198;2023-06-14T10:24:24;3.35;;;2.38;;
69240;SDS011;56352;55.750;13.198;2023-06-14T10:26:54;3.88;;;2.33;;
69240;SDS011;56352;55.750;13.198;2023-06-14T10:29:26;2.58;;;2.20;;
69240;SDS011;56352;55.750;13.198;2023-06-14T10:31:57;3.20;;;2.40;;
69240;SDS011;56352;55.750;13.198;2023-06-14T10:37:00;4.18;;;2.60;;
69240;SDS011;56352;55.750;13.198;2023-06-14T10:39:27;4.47;;;2.30;;
69240;SDS011;56352;55.750;13.198;2023-06-14T10:41:55;5.32;;;2.63;;
69240;SDS011;56352;55.750;13.198;2023-06-14T10:49:18;5.07;;;2.53;;
69240;SDS011;56352;55.750;13.198;2023-06-14T10:51:51;3.28;;;2.17;;
69240;SDS011;56352;55.750;13.198;2023-06-14T10:54:22;2.67;;;2.38;;
69240;SDS011;56352;55.750;13.198;2023-06-14T10:56:50;4.85;;;2.65;;
69240;SDS011;56352;55.750;13.198;2023-06-14T10:59:17;3.10;;;2.80;;
69240;SDS011;56352;55.750;13.198;2023-06-14T11:01:49;3.65;;;2.50;;
69240;SDS011;56352;55.750;13.198;2023-06-14T11:04:17;7.57;;;2.97;;
69240;SDS011;56352;55.750;13.198;2023-06-14T11:06:47;3.83;;;2.90;;
69240;SDS011;56352;55.750;13.198;2023-06-14T11:11:53;3.53;;;2.72;;
69240;SDS011;56352;55.750;13.198;2023-06-14T11:14:20;2.80;;;2.60;;
69240;SDS011;56352;55.750;13.198;2023-06-14T11:16:50;2.73;;;2.53;;
69240;SDS011;56352;55.750;13.198;2023-06-14T11:19:16;4.25;;;2.50;;
69240;SDS011;56352;55.750;13.198;2023-06-14T11:21:49;2.92;;;2.45;;
69240;SDS011;56352;55.750;13.198;2023-06-14T11:24:16;5.32;;;2.78;;
69240;SDS011;56352;55.750;13.198;2023-06-14T11:29:09;4.40;;;2.77;;
69240;SDS011;56352;55.750;13.198;2023-06-14T11:31:36;4.82;;;2.58;;
69240;SDS011;56352;55.750;13.198;2023-06-14T11:34:03;4.10;;;2.47;;
69240;SDS011;56352;55.750;13.198;2023-06-14T11:36:30;9.18;;;3.15;;
69240;SDS011;56352;55.750;13.198;2023-06-14T11:39:03;3.55;;;3.08;;
69240;SDS011;56352;55.750;13.198;2023-06-14T11:41:36;3.75;;;2.90;;
69240;SDS011;56352;55.750;13.198;2023-06-14T11:44:03;5.25;;;2.95;;
69240;SDS011;56352;55.750;13.198;2023-06-14T11:46:30;3.60;;;2.60;;
69240;SDS011;56352;55.750;13.198;2023-06-14T11:48:56;5.68;;;2.90;;
69240;SDS011;56352;55.750;13.198;2023-06-14T11:51:23;5.63;;;3.00;;
69240;SDS011;56352;55.750;13.198;2023-06-14T11:53:49;5.27;;;2.90;;
69240;SDS011;56352;55.750;13.198;2023-06-14T11:56:16;4.10;;;2.90;;
69240;SDS011;56352;55.750;13.198;2023-06-14T11:58:43;3.38;;;2.85;;
69240;SDS011;56352;55.750;13.198;2023-06-14T12:01:14;4.10;;;2.83;;
69240;SDS011;56352;55.750;13.198;2023-06-14T12:03:46;3.72;;;2.70;;
69240;SDS011;56352;55.750;13.198;2023-06-14T12:06:13;3.20;;;2.90;;
69240;SDS011;56352;55.750;13.198;2023-06-14T12:08:39;4.85;;;2.90;;
69240;SDS011;56352;55.750;13.198;2023-06-14T12:11:10;3.67;;;2.92;;
69240;SDS011;56352;55.750;13.198;2023-06-14T12:13:43;3.60;;;2.75;;
69240;SDS011;56352;55.750;13.198;2023-06-14T12:16:10;4.43;;;2.60;;
69240;SDS011;56352;55.750;13.198;2023-06-14T12:18:38;5.68;;;2.65;;
69240;SDS011;56352;55.750;13.198;2023-06-14T12:21:05;3.17;;;2.83;;
69240;SDS011;56352;55.750;13.198;2023-06-14T12:26:06;4.15;;;2.60;;
69240;SDS011;56352;55.750;13.198;2023-06-14T12:28:37;3.30;;;2.72;;
69240;SDS011;56352;55.750;13.198;2023-06-14T12:31:04;3.70;;;2.72;;
69240;SDS011;56352;55.750;13.198;2023-06-14T12:33:30;3.67;;;2.72;;
69240;SDS011;56352;55.750;13.198;2023-06-14T12:35:58;3.07;;;2.53;;
69240;SDS011;56352;55.750;13.198;2023-06-14T12:38:24;3.95;;;2.80;;
69240;SDS011;56352;55.750;13.198;2023-06-14T12:40:51;3.85;;;2.47;;
69240;SDS011;56352;55.750;13.198;2023-06-14T12:43:18;4.22;;;2.70;;
69240;SDS011;56352;55.750;13.198;2023-06-14T12:45:45;5.63;;;2.70;;
69240;SDS011;56352;55.750;13.198;2023-06-14T12:48:12;4.93;;;2.72;;
69240;SDS011;56352;55.750;13.198;2023-06-14T12:50:39;2.90;;;2.63;;
69240;SDS011;56352;55.750;13.198;2023-06-14T12:53:05;3.10;;;2.80;;
69240;SDS011;56352;55.750;13.198;2023-06-14T12:55:32;3.00;;;2.53;;
69240;SDS011;56352;55.750;13.198;2023-06-14T12:57:58;4.70;;;3.20;;
69240;SDS011;56352;55.750;13.198;2023-06-14T13:00:25;3.38;;;2.70;;
69240;SDS011;56352;55.750;13.198;2023-06-14T13:02:52;9.38;;;2.58;;
69240;SDS011;56352;55.750;13.198;2023-06-14T13:05:19;3.63;;;2.83;;
69240;SDS011;56352;55.750;13.198;2023-06-14T13:07:46;3.80;;;2.65;;
69240;SDS011;56352;55.750;13.198;2023-06-14T13:10:13;5.00;;;2.50;;
69240;SDS011;56352;55.750;13.198;2023-06-14T13:12:40;5.03;;;2.83;;
69240;SDS011;56352;55.750;13.198;2023-06-14T13:15:06;3.83;;;3.03;;
69240;SDS011;56352;55.750;13.198;2023-06-14T13:17:34;4.00;;;3.00;;
69240;SDS011;56352;55.750;13.198;2023-06-14T13:20:05;7.25;;;2.85;;
69240;SDS011;56352;55.750;13.198;2023-06-14T13:22:32;6.13;;;3.10;;
69240;SDS011;56352;55.750;13.198;2023-06-14T13:24:58;4.72;;;3.00;;
69240;SDS011;56352;55.750;13.198;2023-06-14T13:27:26;3.15;;;2.78;;
69240;SDS011;56352;55.750;13.198;2023-06-14T13:29:53;2.80;;;2.53;;
69240;SDS011;56352;55.750;13.198;2023-06-14T13:32:22;5.83;;;3.10;;
69240;SDS011;56352;55.750;13.198;2023-06-14T13:34:49;4.53;;;2.70;;
69240;SDS011;56352;55.750;13.198;2023-06-14T13:37:16;4.43;;;2.25;;
69240;SDS011;56352;55.750;13.198;2023-06-14T13:39:43;6.03;;;2.63;;
69240;SDS011;56352;55.750;13.198;2023-06-14T13:42:10;2.95;;;2.58;;
69240;SDS011;56352;55.750;13.198;2023-06-14T13:44:37;5.50;;;2.80;;
69240;SDS011;56352;55.750;13.198;2023-06-14T13:47:03;2.58;;;2.30;;
69240;SDS011;56352;55.750;13.198;2023-06-14T13:49:30;3.33;;;2.58;;
69240;SDS011;56352;55.750;13.198;2023-06-14T13:52:00;10.75;;;3.08;;
69240;SDS011;56352;55.750;13.198;2023-06-14T13:54:27;5.10;;;2.60;;
69240;SDS011;56352;55.750;13.198;2023-06-14T13:56:54;5.72;;;2.75;;
69240;SDS011;56352;55.750;13.198;2023-06-14T13:59:20;9.00;;;2.80;;
69240;SDS011;56352;55.750;13.198;2023-06-14T14:01:48;4.85;;;2.50;;
69240;SDS011;56352;55.750;13.198;2023-06-14T14:04:15;2.90;;;2.58;;
69240;SDS011;56352;55.750;13.198;2023-06-14T14:06:42;3.80;;;2.80;;
69240;SDS011;56352;55.750;13.198;2023-06-14T14:09:09;3.17;;;2.88;;
69240;SDS011;56352;55.750;13.198;2023-06-14T14:11:36;3.97;;;2.30;;
69240;SDS011;56352;55.750;13.198;2023-06-14T14:14:03;2.72;;;2.42;;
69240;SDS011;56352;55.750;13.198;2023-06-14T14:16:31;3.85;;;2.80;;
69240;SDS011;56352;55.750;13.198;2023-06-14T14:18:58;3.42;;;2.70;;
69240;SDS011;56352;55.750;13.198;2023-06-14T14:21:25;3.33;;;2.70;;
69240;SDS011;56352;55.750;13.198;2023-06-14T14:23:51;5.70;;;2.58;;
69240;SDS011;56352;55.750;13.198;2023-06-14T14:26:18;3.92;;;2.40;;
69240;SDS011;56352;55.750;13.198;2023-06-14T14:28:44;6.00;;;2.92;;
69240;SDS011;56352;55.750;13.198;2023-06-14T14:31:11;3.45;;;2.58;;
69240;SDS011;56352;55.750;13.198;2023-06-14T14:33:38;5.07;;;2.85;;
69240;SDS011;56352;55.750;13.198;2023-06-14T14:36:04;5.60;;;2.58;;
69240;SDS011;56352;55.750;13.198;2023-06-14T14:38:32;4.70;;;2.40;;
69240;SDS011;56352;55.750;13.198;2023-06-14T14:40:59;4.30;;;2.28;;
69240;SDS011;56352;55.750;13.198;2023-06-14T14:43:25;4.35;;;2.63;;
69240;SDS011;56352;55.750;13.198;2023-06-14T14:45:53;6.22;;;2.47;;
69240;SDS011;56352;55.750;13.198;2023-06-14T14:48:19;5.03;;;2.60;;
69240;SDS011;56352;55.750;13.198;2023-06-14T14:50:46;3.97;;;2.30;;
69240;SDS011;56352;55.750;13.198;2023-06-14T14:53:13;3.55;;;2.78;;
69240;SDS011;56352;55.750;13.198;2023-06-14T14:55:39;3.33;;;2.42;;
69240;SDS011;56352;55.750;13.198;2023-06-14T15:00:34;2.75;;;2.55;;
69240;SDS011;56352;55.750;13.198;2023-06-14T15:03:01;4.50;;;2.40;;
69240;SDS011;56352;55.750;13.198;2023-06-14T15:05:27;5.50;;;2.30;;